SKBQ/BAQ METAR and TAF weather

Enter ICAO airport designator
Station Type Date Time Source
SKBQ METAR 2019/06/19 07:00 UTC NOAA

SKBQ 190700Z 35006KT 310V030 CAVOK 28/24 A2975 NOSIG


Station Type Date Time Source
SKBQ Decoded METAR 2019/06/19 07:00 UTC NOAA

Barranquilla / Ernestocortissoz, Colombia (SKBQ) 10-53N 074-47W 30M
Jun 19, 2019 - 03:00 AM EDT / 2019.06.19 0700 UTC
Wind: from the N (350 degrees) at 7 MPH (6 KT) (direction variable):0
Visibility: greater than 7 mile(s):0
Temperature: 82 F (28 C)
Dew Point: 75 F (24 C)
Relative Humidity: 78%
Pressure (altimeter): 29.75 in. Hg (1007 hPa)
ob: SKBQ 190700Z 35006KT 310V030 CAVOK 28/24 A2975 NOSIG
cycle: 7

Station Type Date Time Source
SKBQ TAF 2019/06/19 06:52 UTC NOAA

TAF SKBQ 190430Z 1906/2006 01010KT CAVOK
TEMPO 1910/1913 VRB02KT 4000 BR FEW012
BECMG 1915/1917 9999 SCT015
TEMPO 1920/1923 FEW015CB TX34/1918Z TN27/1911Z

Example: see airport list